sensor_id;sensor_type;location;lat;lon;timestamp;pressure;altitude;pressure_sealevel;temperature;humidity
13661;BME280;6903;49.480;11.102;2022-09-20T00:00:45;98238.88;;;11.23;100.00
13661;BME280;6903;49.480;11.102;2022-09-20T00:03:12;98237.81;;;11.25;100.00
13661;BME280;6903;49.480;11.102;2022-09-20T00:05:40;98242.25;;;11.25;100.00
13661;BME280;6903;49.480;11.102;2022-09-20T00:08:11;98244.41;;;11.31;100.00
13661;BME280;6903;49.480;11.102;2022-09-20T00:10:36;98234.19;;;11.26;100.00
13661;BME280;6903;49.480;11.102;2022-09-20T00:13:06;98240.09;;;11.30;100.00
13661;BME280;6903;49.480;11.102;2022-09-20T00:15:32;98236.00;;;11.26;100.00
13661;BME280;6903;49.480;11.102;2022-09-20T00:17:57;98238.19;;;11.21;100.00
13661;BME280;6903;49.480;11.102;2022-09-20T00:20:24;98243.91;;;11.26;100.00
13661;BME280;6903;49.480;11.102;2022-09-20T00:22:49;98251.13;;;11.24;100.00
13661;BME280;6903;49.480;11.102;2022-09-20T00:25:16;98244.88;;;11.25;100.00
13661;BME280;6903;49.480;11.102;2022-09-20T00:27:42;98242.47;;;11.22;100.00
13661;BME280;6903;49.480;11.102;2022-09-20T00:30:08;98234.06;;;11.17;100.00
13661;BME280;6903;49.480;11.102;2022-09-20T00:32:33;98236.47;;;11.20;100.00
13661;BME280;6903;49.480;11.102;2022-09-20T00:34:58;98236.59;;;11.18;100.00
13661;BME280;6903;49.480;11.102;2022-09-20T00:37:35;98230.00;;;11.13;100.00
13661;BME280;6903;49.480;11.102;2022-09-20T00:40:02;98227.13;;;11.05;100.00
13661;BME280;6903;49.480;11.102;2022-09-20T00:42:29;98230.94;;;11.01;100.00
13661;BME280;6903;49.480;11.102;2022-09-20T00:44:59;98234.31;;;11.03;100.00
13661;BME280;6903;49.480;11.102;2022-09-20T00:47:32;98230.69;;;10.93;100.00
13661;BME280;6903;49.480;11.102;2022-09-20T00:50:10;98228.88;;;10.82;100.00
13661;BME280;6903;49.480;11.102;2022-09-20T00:52:37;98219.00;;;10.73;100.00
13661;BME280;6903;49.480;11.102;2022-09-20T00:55:06;98225.09;;;10.63;100.00
13661;BME280;6903;49.480;11.102;2022-09-20T00:57:33;98221.13;;;10.57;100.00
13661;BME280;6903;49.480;11.102;2022-09-20T01:00:04;98225.91;;;10.52;100.00
13661;BME280;6903;49.480;11.102;2022-09-20T01:02:31;98223.38;;;10.51;100.00
13661;BME280;6903;49.480;11.102;2022-09-20T01:04:58;98224.47;;;10.48;100.00
13661;BME280;6903;49.480;11.102;2022-09-20T01:07:24;98221.81;;;10.48;100.00
13661;BME280;6903;49.480;11.102;2022-09-20T01:09:50;98232.03;;;10.53;100.00
13661;BME280;6903;49.480;11.102;2022-09-20T01:12:21;98236.09;;;10.57;100.00
13661;BME280;6903;49.480;11.102;2022-09-20T01:14:50;98221.13;;;10.57;100.00
13661;BME280;6903;49.480;11.102;2022-09-20T01:17:18;98227.50;;;10.66;100.00
13661;BME280;6903;49.480;11.102;2022-09-20T01:27:59;98224.66;;;10.80;100.00
13661;BME280;6903;49.480;11.102;2022-09-20T01:30:38;98232.22;;;10.84;100.00
13661;BME280;6903;49.480;11.102;2022-09-20T01:33:26;98235.59;;;10.86;100.00
13661;BME280;6903;49.480;11.102;2022-09-20T01:35:53;98232.34;;;10.83;100.00
13661;BME280;6903;49.480;11.102;2022-09-20T01:38:35;98234.63;;;10.87;100.00
13661;BME280;6903;49.480;11.102;2022-09-20T01:41:16;98228.16;;;10.91;100.00
13661;BME280;6903;49.480;11.102;2022-09-20T01:43:53;98228.53;;;10.98;100.00
13661;BME280;6903;49.480;11.102;2022-09-20T01:46:34;98223.38;;;10.96;100.00
13661;BME280;6903;49.480;11.102;2022-09-20T01:54:29;98233.47;;;11.02;100.00
13661;BME280;6903;49.480;11.102;2022-09-20T02:00:50;98229.97;;;11.02;100.00
13661;BME280;6903;49.480;11.102;2022-09-20T02:06:24;98240.88;;;10.97;100.00
13661;BME280;6903;49.480;11.102;2022-09-20T02:09:24;98245.09;;;11.00;100.00
13661;BME280;6903;49.480;11.102;2022-09-20T02:20:55;98240.06;;;11.08;100.00
13661;BME280;6903;49.480;11.102;2022-09-20T02:23:50;98240.06;;;11.08;100.00
13661;BME280;6903;49.480;11.102;2022-09-20T02:26:54;98234.66;;;10.98;100.00
13661;BME280;6903;49.480;11.102;2022-09-20T02:32:20;98241.38;;;11.02;100.00
13661;BME280;6903;49.480;11.102;2022-09-20T02:35:19;98238.00;;;11.00;100.00
13661;BME280;6903;49.480;11.102;2022-09-20T02:38:08;98245.09;;;11.00;100.00
13661;BME280;6903;49.480;11.102;2022-09-20T02:55:06;98246.03;;;10.88;100.00
13661;BME280;6903;49.480;11.102;2022-09-20T03:00:06;98236.69;;;10.84;100.00
13661;BME280;6903;49.480;11.102;2022-09-20T03:05:53;98231.59;;;10.81;100.00
13661;BME280;6903;49.480;11.102;2022-09-20T03:08:34;98234.47;;;10.78;100.00
13661;BME280;6903;49.480;11.102;2022-09-20T03:11:28;98241.91;;;10.73;100.00
13661;BME280;6903;49.480;11.102;2022-09-20T03:14:26;98240.97;;;10.74;100.00
13661;BME280;6903;49.480;11.102;2022-09-20T03:20:25;98251.34;;;10.64;100.00
13661;BME280;6903;49.480;11.102;2022-09-20T03:25:48;98250.47;;;10.53;100.00
13661;BME280;6903;49.480;11.102;2022-09-20T03:39:01;98248.97;;;10.61;100.00
13661;BME280;6903;49.480;11.102;2022-09-20T03:53:11;98245.13;;;10.65;100.00
13661;BME280;6903;49.480;11.102;2022-09-20T04:04:48;98253.63;;;10.58;100.00
13661;BME280;6903;49.480;11.102;2022-09-20T04:12:48;98269.81;;;10.64;100.00
13661;BME280;6903;49.480;11.102;2022-09-20T04:15:34;98271.72;;;10.62;100.00
13661;BME280;6903;49.480;11.102;2022-09-20T04:18:20;98265.56;;;10.51;100.00
13661;BME280;6903;49.480;11.102;2022-09-20T04:20:54;98262.06;;;10.50;100.00
13661;BME280;6903;49.480;11.102;2022-09-20T04:25:58;98269.91;;;10.52;100.00
13661;BME280;6903;49.480;11.102;2022-09-20T04:28:46;98272.81;;;10.60;100.00
13661;BME280;6903;49.480;11.102;2022-09-20T04:31:32;98274.34;;;10.62;100.00
13661;BME280;6903;49.480;11.102;2022-09-20T04:34:01;98275.22;;;10.63;100.00
13661;BME280;6903;49.480;11.102;2022-09-20T04:42:34;98277.41;;;10.80;100.00
13661;BME280;6903;49.480;11.102;2022-09-20T04:51:08;98282.84;;;10.89;100.00
13661;BME280;6903;49.480;11.102;2022-09-20T04:53:58;98284.63;;;10.89;100.00
13661;BME280;6903;49.480;11.102;2022-09-20T04:59:36;98292.13;;;10.71;100.00
13661;BME280;6903;49.480;11.102;2022-09-20T05:02:39;98286.47;;;10.65;100.00
13661;BME280;6903;49.480;11.102;2022-09-20T05:13:54;98306.47;;;10.56;100.00
13661;BME280;6903;49.480;11.102;2022-09-20T05:21:35;98318.75;;;10.45;100.00
13661;BME280;6903;49.480;11.102;2022-09-20T05:27:32;98322.50;;;10.53;100.00
13661;BME280;6903;49.480;11.102;2022-09-20T05:30:11;98314.53;;;10.66;100.00
13661;BME280;6903;49.480;11.102;2022-09-20T05:44:10;98337.88;;;11.74;100.00
13661;BME280;6903;49.480;11.102;2022-09-20T05:55:39;98334.84;;;11.68;100.00
13661;BME280;6903;49.480;11.102;2022-09-20T05:58:51;98328.72;;;11.67;100.00
13661;BME280;6903;49.480;11.102;2022-09-20T06:01:33;98321.84;;;11.65;100.00
13661;BME280;6903;49.480;11.102;2022-09-20T06:04:18;98331.84;;;11.72;100.00
13661;BME280;6903;49.480;11.102;2022-09-20T06:10:04;98338.69;;;11.64;100.00
13661;BME280;6903;49.480;11.102;2022-09-20T06:15:21;98358.63;;;11.90;100.00
13661;BME280;6903;49.480;11.102;2022-09-20T06:18:19;98352.13;;;12.69;100.00
13661;BME280;6903;49.480;11.102;2022-09-20T06:20:55;98361.31;;;13.79;100.00
13661;BME280;6903;49.480;11.102;2022-09-20T06:23:24;98354.56;;;14.75;100.00
13661;BME280;6903;49.480;11.102;2022-09-20T06:25:55;98353.31;;;15.55;100.00
13661;BME280;6903;49.480;11.102;2022-09-20T06:28:32;98350.75;;;15.64;100.00
13661;BME280;6903;49.480;11.102;2022-09-20T06:30:58;98341.47;;;15.77;100.00
13661;BME280;6903;49.480;11.102;2022-09-20T06:33:26;98342.09;;;15.62;100.00
13661;BME280;6903;49.480;11.102;2022-09-20T06:36:20;98344.09;;;15.12;100.00
13661;BME280;6903;49.480;11.102;2022-09-20T06:42:05;98348.09;;;14.49;100.00
13661;BME280;6903;49.480;11.102;2022-09-20T06:44:31;98351.44;;;14.21;100.00
13661;BME280;6903;49.480;11.102;2022-09-20T06:46:56;98350.00;;;13.98;100.00
13661;BME280;6903;49.480;11.102;2022-09-20T06:49:22;98351.84;;;13.77;100.00
13661;BME280;6903;49.480;11.102;2022-09-20T06:51:48;98355.44;;;13.76;100.00
13661;BME280;6903;49.480;11.102;2022-09-20T06:54:17;98354.41;;;13.88;100.00
13661;BME280;6903;49.480;11.102;2022-09-20T06:56:44;98349.84;;;13.99;100.00
13661;BME280;6903;49.480;11.102;2022-09-20T06:59:11;98351.41;;;14.11;100.00
13661;BME280;6903;49.480;11.102;2022-09-20T07:01:37;98353.97;;;14.22;100.00
13661;BME280;6903;49.480;11.102;2022-09-20T07:04:03;98351.41;;;14.42;100.00
13661;BME280;6903;49.480;11.102;2022-09-20T07:06:30;98345.16;;;14.52;100.00
13661;BME280;6903;49.480;11.102;2022-09-20T07:08:55;98355.19;;;14.49;100.00
13661;BME280;6903;49.480;11.102;2022-09-20T07:11:20;98356.38;;;14.26;100.00
13661;BME280;6903;49.480;11.102;2022-09-20T07:13:52;98358.34;;;14.03;100.00
13661;BME280;6903;49.480;11.102;2022-09-20T07:16:18;98353.16;;;13.92;100.00
13661;BME280;6903;49.480;11.102;2022-09-20T07:18:44;98357.06;;;13.88;100.00
13661;BME280;6903;49.480;11.102;2022-09-20T07:21:12;98362.44;;;13.77;100.00
13661;BME280;6903;49.480;11.102;2022-09-20T07:23:37;98355.75;;;13.82;100.00
13661;BME280;6903;49.480;11.102;2022-09-20T07:26:03;98354.47;;;14.07;100.00
13661;BME280;6903;49.480;11.102;2022-09-20T07:28:30;98360.03;;;14.34;100.00
13661;BME280;6903;49.480;11.102;2022-09-20T07:30:56;98360.19;;;14.33;100.00
13661;BME280;6903;49.480;11.102;2022-09-20T07:33:21;98363.53;;;14.25;100.00
13661;BME280;6903;49.480;11.102;2022-09-20T07:35:52;98360.13;;;14.23;100.00
13661;BME280;6903;49.480;11.102;2022-09-20T07:38:19;98364.56;;;14.22;100.00
13661;BME280;6903;49.480;11.102;2022-09-20T07:40:45;98358.97;;;14.16;100.00
13661;BME280;6903;49.480;11.102;2022-09-20T07:43:11;98366.09;;;14.15;100.00
13661;BME280;6903;49.480;11.102;2022-09-20T07:45:37;98359.78;;;14.07;100.00
13661;BME280;6903;49.480;11.102;2022-09-20T07:48:04;98364.56;;;14.22;100.00
13661;BME280;6903;49.480;11.102;2022-09-20T07:50:32;98372.53;;;14.22;100.00
13661;BME280;6903;49.480;11.102;2022-09-20T07:52:57;98368.00;;;14.34;100.00
13661;BME280;6903;49.480;11.102;2022-09-20T07:55:23;98378.19;;;14.29;100.00
13661;BME280;6903;49.480;11.102;2022-09-20T07:57:48;98380.91;;;14.18;100.00
13661;BME280;6903;49.480;11.102;2022-09-20T08:00:16;98384.97;;;14.22;100.00
13661;BME280;6903;49.480;11.102;2022-09-20T08:02:42;98378.63;;;14.34;100.00
13661;BME280;6903;49.480;11.102;2022-09-20T08:05:09;98384.69;;;14.55;100.00
13661;BME280;6903;49.480;11.102;2022-09-20T08:07:34;98383.03;;;14.64;100.00
13661;BME280;6903;49.480;11.102;2022-09-20T08:10:00;98392.97;;;14.71;100.00
13661;BME280;6903;49.480;11.102;2022-09-20T08:12:26;98375.38;;;14.80;100.00
13661;BME280;6903;49.480;11.102;2022-09-20T08:14:52;98384.34;;;14.88;100.00
13661;BME280;6903;49.480;11.102;2022-09-20T08:17:17;98381.56;;;14.99;100.00
13661;BME280;6903;49.480;11.102;2022-09-20T08:19:43;98383.66;;;15.05;100.00
13661;BME280;6903;49.480;11.102;2022-09-20T08:22:09;98387.44;;;15.22;100.00
13661;BME280;6903;49.480;11.102;2022-09-20T08:24:36;98382.00;;;15.42;100.00
13661;BME280;6903;49.480;11.102;2022-09-20T08:27:02;98387.69;;;15.67;100.00
13661;BME280;6903;49.480;11.102;2022-09-20T08:29:28;98385.16;;;15.75;100.00
13661;BME280;6903;49.480;11.102;2022-09-20T08:31:53;98380.72;;;15.66;100.00
13661;BME280;6903;49.480;11.102;2022-09-20T08:34:22;98384.75;;;15.70;100.00
13661;BME280;6903;49.480;11.102;2022-09-20T08:36:48;98384.03;;;15.68;100.00
13661;BME280;6903;49.480;11.102;2022-09-20T08:39:16;98395.09;;;15.63;100.00
13661;BME280;6903;49.480;11.102;2022-09-20T08:41:52;98388.28;;;15.61;100.00
13661;BME280;6903;49.480;11.102;2022-09-20T08:44:29;98392.00;;;15.68;100.00
13661;BME280;6903;49.480;11.102;2022-09-20T08:47:15;98391.16;;;15.86;100.00
13661;BME280;6903;49.480;11.102;2022-09-20T08:49:42;98385.09;;;15.94;100.00
13661;BME280;6903;49.480;11.102;2022-09-20T08:52:15;98383.47;;;15.83;100.00
13661;BME280;6903;49.480;11.102;2022-09-20T08:54:40;98391.19;;;15.67;100.00
13661;BME280;6903;49.480;11.102;2022-09-20T08:57:15;98389.34;;;15.68;100.00
13661;BME280;6903;49.480;11.102;2022-09-20T08:59:41;98388.25;;;15.70;100.00
13661;BME280;6903;49.480;11.102;2022-09-20T09:02:18;98391.25;;;16.04;100.00
13661;BME280;6903;49.480;11.102;2022-09-20T09:04:45;98402.25;;;16.55;100.00
13661;BME280;6903;49.480;11.102;2022-09-20T09:07:15;98390.22;;;16.78;100.00
13661;BME280;6903;49.480;11.102;2022-09-20T09:09:43;98390.28;;;16.68;100.00
13661;BME280;6903;49.480;11.102;2022-09-20T09:12:20;98393.63;;;16.34;100.00
13661;BME280;6903;49.480;11.102;2022-09-20T09:14:48;98398.00;;;15.89;100.00
13661;BME280;6903;49.480;11.102;2022-09-20T09:17:21;98394.16;;;15.45;100.00
13661;BME280;6903;49.480;11.102;2022-09-20T09:19:52;98395.94;;;15.06;100.00
13661;BME280;6903;49.480;11.102;2022-09-20T09:22:38;98395.66;;;15.00;100.00
13661;BME280;6903;49.480;11.102;2022-09-20T09:25:20;98391.22;;;15.57;100.00
13661;BME280;6903;49.480;11.102;2022-09-20T09:30:25;98401.69;;;16.15;100.00
13661;BME280;6903;49.480;11.102;2022-09-20T09:32:52;98390.06;;;16.16;100.00
13661;BME280;6903;49.480;11.102;2022-09-20T09:35:37;98374.31;;;16.68;100.00
13661;BME280;6903;49.480;11.102;2022-09-20T09:38:02;98380.19;;;17.07;100.00
13661;BME280;6903;49.480;11.102;2022-09-20T09:40:29;98370.47;;;17.51;100.00
13661;BME280;6903;49.480;11.102;2022-09-20T09:43:01;98365.41;;;17.91;100.00
13661;BME280;6903;49.480;11.102;2022-09-20T09:45:35;98366.16;;;18.34;100.00
13661;BME280;6903;49.480;11.102;2022-09-20T09:50:47;98377.00;;;18.07;100.00
13661;BME280;6903;49.480;11.102;2022-09-20T09:53:22;98374.69;;;17.44;100.00
13661;BME280;6903;49.480;11.102;2022-09-20T09:58:33;98371.50;;;17.05;100.00
13661;BME280;6903;49.480;11.102;2022-09-20T10:01:13;98374.44;;;17.72;100.00
13661;BME280;6903;49.480;11.102;2022-09-20T10:03:51;98367.72;;;18.45;100.00
13661;BME280;6903;49.480;11.102;2022-09-20T10:07:21;98375.97;;;19.41;100.00
13661;BME280;6903;49.480;11.102;2022-09-20T10:10:10;98368.94;;;19.73;100.00
13661;BME280;6903;49.480;11.102;2022-09-20T10:12:52;98368.59;;;19.67;100.00
13661;BME280;6903;49.480;11.102;2022-09-20T10:15:40;98367.13;;;19.65;100.00
13661;BME280;6903;49.480;11.102;2022-09-20T10:18:33;98361.09;;;19.31;100.00
13661;BME280;6903;49.480;11.102;2022-09-20T10:21:10;98366.94;;;18.69;100.00
13661;BME280;6903;49.480;11.102;2022-09-20T10:23:48;98369.75;;;18.25;100.00
13661;BME280;6903;49.480;11.102;2022-09-20T10:26:37;98375.69;;;18.11;100.00
13661;BME280;6903;49.480;11.102;2022-09-20T10:29:11;98371.88;;;17.88;100.00
13661;BME280;6903;49.480;11.102;2022-09-20T10:34:42;98380.56;;;17.30;100.00
13661;BME280;6903;49.480;11.102;2022-09-20T10:37:32;98367.56;;;17.27;100.00
13661;BME280;6903;49.480;11.102;2022-09-20T10:42:49;98378.91;;;17.46;100.00
13661;BME280;6903;49.480;11.102;2022-09-20T10:45:51;98362.97;;;17.54;100.00
13661;BME280;6903;49.480;11.102;2022-09-20T10:48:44;98369.31;;;18.04;100.00
13661;BME280;6903;49.480;11.102;2022-09-20T10:51:53;98364.16;;;18.11;100.00
13661;BME280;6903;49.480;11.102;2022-09-20T11:07:53;98362.28;;;16.82;100.00
13661;BME280;6903;49.480;11.102;2022-09-20T11:10:27;98362.34;;;16.72;100.00
13661;BME280;6903;49.480;11.102;2022-09-20T11:13:02;98370.81;;;17.03;100.00
13661;BME280;6903;49.480;11.102;2022-09-20T11:15:38;98365.25;;;17.92;100.00
13661;BME280;6903;49.480;11.102;2022-09-20T11:18:14;98371.91;;;18.56;100.00
13661;BME280;6903;49.480;11.102;2022-09-20T11:21:01;98370.59;;;18.60;100.00
13661;BME280;6903;49.480;11.102;2022-09-20T11:31:38;98366.72;;;18.54;100.00
13661;BME280;6903;49.480;11.102;2022-09-20T11:36:58;98372.06;;;19.04;100.00
13661;BME280;6903;49.480;11.102;2022-09-20T11:39:42;98366.44;;;19.39;99.14
13661;BME280;6903;49.480;11.102;2022-09-20T11:42:14;98373.28;;;19.41;98.25
13661;BME280;6903;49.480;11.102;2022-09-20T11:44:41;98371.13;;;19.37;97.97
13661;BME280;6903;49.480;11.102;2022-09-20T11:47:21;98366.78;;;19.44;98.90
13661;BME280;6903;49.480;11.102;2022-09-20T11:53:38;98378.28;;;19.85;93.61
13661;BME280;6903;49.480;11.102;2022-09-20T11:56:18;98374.44;;;19.87;90.16
13661;BME280;6903;49.480;11.102;2022-09-20T11:58:48;98373.56;;;20.19;89.69
13661;BME280;6903;49.480;11.102;2022-09-20T12:01:22;98372.06;;;20.08;89.22
13661;BME280;6903;49.480;11.102;2022-09-20T12:03:52;98360.09;;;19.40;89.47
13661;BME280;6903;49.480;11.102;2022-09-20T12:06:26;98355.50;;;18.92;92.12
13661;BME280;6903;49.480;11.102;2022-09-20T12:08:54;98365.59;;;18.57;97.36
13661;BME280;6903;49.480;11.102;2022-09-20T12:11:31;98354.41;;;18.61;97.55
13661;BME280;6903;49.480;11.102;2022-09-20T12:14:03;98358.38;;;19.15;99.95
13661;BME280;6903;49.480;11.102;2022-09-20T12:16:40;98356.56;;;19.39;92.20
13661;BME280;6903;49.480;11.102;2022-09-20T12:19:11;98355.91;;;19.78;92.65
13661;BME280;6903;49.480;11.102;2022-09-20T12:26:58;98361.00;;;18.83;91.99
13661;BME280;6903;49.480;11.102;2022-09-20T12:31:54;98365.34;;;18.84;96.35
13661;BME280;6903;49.480;11.102;2022-09-20T12:39:20;98359.38;;;19.78;90.98
13661;BME280;6903;49.480;11.102;2022-09-20T12:41:59;98354.22;;;20.39;85.04
13661;BME280;6903;49.480;11.102;2022-09-20T12:47:21;98346.03;;;20.79;85.62
13661;BME280;6903;49.480;11.102;2022-09-20T12:55:52;98346.78;;;21.19;85.51
13661;BME280;6903;49.480;11.102;2022-09-20T12:58:25;98355.13;;;21.01;82.64
13661;BME280;6903;49.480;11.102;2022-09-20T13:11:40;98337.66;;;19.25;82.55
13661;BME280;6903;49.480;11.102;2022-09-20T13:14:19;98342.53;;;19.53;81.58
13661;BME280;6903;49.480;11.102;2022-09-20T13:17:02;98337.69;;;19.65;83.46
13661;BME280;6903;49.480;11.102;2022-09-20T13:19:34;98341.31;;;19.80;85.11
13661;BME280;6903;49.480;11.102;2022-09-20T13:22:12;98342.84;;;19.83;83.47
13661;BME280;6903;49.480;11.102;2022-09-20T13:24:44;98333.97;;;19.82;85.90
13661;BME280;6903;49.480;11.102;2022-09-20T13:27:14;98354.19;;;19.85;83.53
13661;BME280;6903;49.480;11.102;2022-09-20T13:29:43;98345.38;;;19.68;83.79
13661;BME280;6903;49.480;11.102;2022-09-20T13:32:28;98331.66;;;19.55;86.38
13661;BME280;6903;49.480;11.102;2022-09-20T13:40:33;98330.34;;;19.35;85.32
13661;BME280;6903;49.480;11.102;2022-09-20T13:43:01;98323.28;;;19.10;83.93
13661;BME280;6903;49.480;11.102;2022-09-20T13:45:27;98321.50;;;18.61;85.26
13661;BME280;6903;49.480;11.102;2022-09-20T13:47:54;98328.16;;;18.49;87.34
13661;BME280;6903;49.480;11.102;2022-09-20T13:52:54;98317.00;;;18.19;91.50
13661;BME280;6903;49.480;11.102;2022-09-20T13:55:37;98314.66;;;18.16;91.29
13661;BME280;6903;49.480;11.102;2022-09-20T13:58:24;98323.03;;;18.21;95.96
13661;BME280;6903;49.480;11.102;2022-09-20T14:01:01;98310.34;;;18.23;98.06
13661;BME280;6903;49.480;11.102;2022-09-20T14:03:28;98314.78;;;18.41;96.50
13661;BME280;6903;49.480;11.102;2022-09-20T14:06:12;98313.69;;;18.67;99.11
13661;BME280;6903;49.480;11.102;2022-09-20T14:08:43;98310.09;;;19.00;94.02
13661;BME280;6903;49.480;11.102;2022-09-20T14:13:38;98316.44;;;19.80;92.70
13661;BME280;6903;49.480;11.102;2022-09-20T14:16:05;98316.88;;;19.91;88.04
13661;BME280;6903;49.480;11.102;2022-09-20T14:18:32;98316.44;;;19.80;88.25
13661;BME280;6903;49.480;11.102;2022-09-20T14:20:58;98311.06;;;19.88;87.86
13661;BME280;6903;49.480;11.102;2022-09-20T14:23:26;98323.59;;;19.79;86.42
13661;BME280;6903;49.480;11.102;2022-09-20T14:26:21;98325.31;;;19.32;80.40
13661;BME280;6903;49.480;11.102;2022-09-20T14:28:46;98322.25;;;19.03;83.68
13661;BME280;6903;49.480;11.102;2022-09-20T14:31:15;98323.78;;;19.13;85.25
13661;BME280;6903;49.480;11.102;2022-09-20T14:33:44;98316.22;;;18.85;82.57
13661;BME280;6903;49.480;11.102;2022-09-20T14:36:13;98320.56;;;18.70;86.29
13661;BME280;6903;49.480;11.102;2022-09-20T14:38:42;98331.78;;;18.40;80.63
13661;BME280;6903;49.480;11.102;2022-09-20T14:41:08;98319.56;;;18.29;80.64
13661;BME280;6903;49.480;11.102;2022-09-20T14:43:34;98321.69;;;18.25;79.48
13661;BME280;6903;49.480;11.102;2022-09-20T14:46:06;98324.38;;;18.25;78.76
13661;BME280;6903;49.480;11.102;2022-09-20T14:48:37;98322.84;;;18.57;81.78
13661;BME280;6903;49.480;11.102;2022-09-20T14:53:41;98324.06;;;18.86;83.02
13661;BME280;6903;49.480;11.102;2022-09-20T14:56:09;98322.59;;;19.08;83.20
13661;BME280;6903;49.480;11.102;2022-09-20T15:01:26;98324.41;;;18.91;84.04
13661;BME280;6903;49.480;11.102;2022-09-20T15:03:52;98322.94;;;18.97;85.55
13661;BME280;6903;49.480;11.102;2022-09-20T15:06:18;98329.56;;;18.77;85.14
13661;BME280;6903;49.480;11.102;2022-09-20T15:08:43;98317.03;;;18.61;86.08
13661;BME280;6903;49.480;11.102;2022-09-20T15:11:14;98333.19;;;18.52;87.59
13661;BME280;6903;49.480;11.102;2022-09-20T15:13:39;98327.50;;;18.47;86.69
13661;BME280;6903;49.480;11.102;2022-09-20T15:16:05;98326.09;;;18.34;84.62
13661;BME280;6903;49.480;11.102;2022-09-20T15:18:35;98326.25;;;18.33;83.65
13661;BME280;6903;49.480;11.102;2022-09-20T15:21:01;98326.38;;;18.31;81.19
13661;BME280;6903;49.480;11.102;2022-09-20T15:23:26;98344.88;;;18.25;87.25
13661;BME280;6903;49.480;11.102;2022-09-20T15:25:53;98327.72;;;16.90;100.00
13661;BME280;6903;49.480;11.102;2022-09-20T15:28:19;98354.66;;;14.55;100.00
13661;BME280;6903;49.480;11.102;2022-09-20T15:30:46;98352.38;;;12.66;100.00
13661;BME280;6903;49.480;11.102;2022-09-20T15:33:13;98368.09;;;11.92;100.00
13661;BME280;6903;49.480;11.102;2022-09-20T15:35:40;98373.63;;;11.78;100.00
13661;BME280;6903;49.480;11.102;2022-09-20T15:38:05;98384.44;;;11.86;100.00
13661;BME280;6903;49.480;11.102;2022-09-20T15:40:33;98398.03;;;12.04;100.00
13661;BME280;6903;49.480;11.102;2022-09-20T15:42:59;98392.97;;;12.01;100.00
13661;BME280;6903;49.480;11.102;2022-09-20T15:45:25;98384.31;;;11.99;100.00
13661;BME280;6903;49.480;11.102;2022-09-20T15:47:52;98392.13;;;12.11;100.00
13661;BME280;6903;49.480;11.102;2022-09-20T15:50:20;98392.28;;;12.21;100.00
13661;BME280;6903;49.480;11.102;2022-09-20T15:52:47;98394.91;;;12.32;100.00
13661;BME280;6903;49.480;11.102;2022-09-20T15:55:13;98388.63;;;12.33;100.00
13661;BME280;6903;49.480;11.102;2022-09-20T15:57:38;98387.91;;;12.31;100.00
13661;BME280;6903;49.480;11.102;2022-09-20T16:00:05;98391.03;;;12.36;100.00
13661;BME280;6903;49.480;11.102;2022-09-20T16:02:31;98398.59;;;12.51;100.00
13661;BME280;6903;49.480;11.102;2022-09-20T16:04:56;98403.88;;;12.62;100.00
13661;BME280;6903;49.480;11.102;2022-09-20T16:07:23;98395.91;;;12.73;100.00
13661;BME280;6903;49.480;11.102;2022-09-20T16:09:51;98399.41;;;12.74;100.00
13661;BME280;6903;49.480;11.102;2022-09-20T16:12:16;98403.81;;;12.84;100.00
13661;BME280;6903;49.480;11.102;2022-09-20T16:14:42;98401.63;;;12.90;100.00
13661;BME280;6903;49.480;11.102;2022-09-20T16:17:07;98395.66;;;12.76;100.00
13661;BME280;6903;49.480;11.102;2022-09-20T16:19:32;98407.22;;;12.64;100.00
13661;BME280;6903;49.480;11.102;2022-09-20T16:21:58;98411.09;;;12.49;100.00
13661;BME280;6903;49.480;11.102;2022-09-20T16:24:25;98416.63;;;12.57;100.00
13661;BME280;6903;49.480;11.102;2022-09-20T16:26:51;98423.22;;;12.52;100.00
13661;BME280;6903;49.480;11.102;2022-09-20T16:29:17;98428.53;;;12.52;100.00
13661;BME280;6903;49.480;11.102;2022-09-20T16:31:47;98435.72;;;12.50;100.00
13661;BME280;6903;49.480;11.102;2022-09-20T16:34:17;98446.19;;;12.40;100.00
13661;BME280;6903;49.480;11.102;2022-09-20T16:36:44;98456.91;;;12.28;100.00
13661;BME280;6903;49.480;11.102;2022-09-20T16:39:11;98447.56;;;12.13;100.00
13661;BME280;6903;49.480;11.102;2022-09-20T16:41:38;98470.94;;;11.95;100.00
13661;BME280;6903;49.480;11.102;2022-09-20T16:44:04;98474.16;;;11.88;100.00
13661;BME280;6903;49.480;11.102;2022-09-20T16:46:30;98483.63;;;11.79;100.00
13661;BME280;6903;49.480;11.102;2022-09-20T16:48:57;98488.59;;;11.60;100.00
13661;BME280;6903;49.480;11.102;2022-09-20T16:51:29;98464.81;;;11.25;100.00
13661;BME280;6903;49.480;11.102;2022-09-20T16:53:56;98469.28;;;10.89;100.00
13661;BME280;6903;49.480;11.102;2022-09-20T16:56:24;98480.00;;;10.75;100.00
13661;BME280;6903;49.480;11.102;2022-09-20T16:58:50;98468.63;;;10.74;100.00
13661;BME280;6903;49.480;11.102;2022-09-20T17:01:16;98480.88;;;10.99;100.00
13661;BME280;6903;49.480;11.102;2022-09-20T17:03:42;98474.75;;;11.22;100.00
13661;BME280;6903;49.480;11.102;2022-09-20T17:06:10;98479.84;;;11.36;100.00
13661;BME280;6903;49.480;11.102;2022-09-20T17:08:37;98479.97;;;11.34;100.00
13661;BME280;6903;49.480;11.102;2022-09-20T17:11:16;98485.09;;;11.25;100.00
13661;BME280;6903;49.480;11.102;2022-09-20T17:13:43;98499.38;;;11.22;100.00
13661;BME280;6903;49.480;11.102;2022-09-20T17:16:11;98488.53;;;11.14;100.00
13661;BME280;6903;49.480;11.102;2022-09-20T17:18:37;98490.09;;;11.17;100.00
13661;BME280;6903;49.480;11.102;2022-09-20T17:21:13;98498.41;;;11.23;100.00
13661;BME280;6903;49.480;11.102;2022-09-20T17:23:44;98493.00;;;11.25;100.00
13661;BME280;6903;49.480;11.102;2022-09-20T17:26:15;98490.78;;;11.08;100.00
13661;BME280;6903;49.480;11.102;2022-09-20T17:28:43;98491.53;;;10.97;100.00